Terminal Aerodrome Forecast
Issued by NWS

Home | Current Version | Previous Version | Text Only | Print | Product List | Glossary On
Versions: 1 2 3 4 5 6 7 8 9 10 11 12 13 14
000
FTUS41 KBTV 251723
TAFMPV
TAF
KMPV 251723Z 2518/2618 26010G20KT P6SM VCSH BKN070
     FM252100 26010KT P6SM BKN080
     FM260400 24006KT P6SM VCSH BKN050
     FM261600 01006KT P6SM VCSH BKN030=

USA.gov is the U.S. government's official web portal to all federal, state and local government web resources and services.